Time;durP1;ratioP1;P1;durP2;ratioP2;P2;SDS_P1;SDS_P2;PMS_P1;PMS_P2;Temp;Humidity;BMP_temperature;BMP_pressure;BME280_temperature;BME280_humidity;BME280_pressure;Samples;Min_cycle;Max_cycle;Signal;HPM_P1;HPM_P2
2022/04/16 00:02:41;;;;;;;2.52;1.40;;;;;;;4.01;72.03;102160.11;1651275;85;21115;-74
2022/04/16 00:05:27;;;;;;;5.78;3.08;;;;;;;3.99;71.98;102163.03;1654318;85;21077;-73
2022/04/16 00:08:11;;;;;;;11.65;5.28;;;;;;;3.97;72.00;102163.38;1674404;83;21424;-74
2022/04/16 00:10:57;;;;;;;5.28;2.30;;;;;;;3.94;71.92;102161.59;1681503;85;21065;-74
2022/04/16 00:13:41;;;;;;;6.58;2.15;;;;;;;3.93;71.90;102166.65;1664274;84;21036;-74
2022/04/16 00:16:26;;;;;;;3.35;1.40;;;;;;;3.90;71.91;102169.97;1668055;83;21093;-74
2022/04/16 00:19:11;;;;;;;2.20;1.55;;;;;;;3.90;71.88;102168.69;1681525;85;21065;-74
2022/04/16 00:21:56;;;;;;;2.33;1.20;;;;;;;3.88;71.89;102172.87;1682408;84;21053;-74
2022/04/16 00:24:44;;;;;;;5.08;1.40;;;;;;;3.89;71.78;102175.91;1663218;84;21057;-74
2022/04/16 00:27:29;;;;;;;2.98;1.47;;;;;;;3.87;71.79;102180.50;1683272;84;20957;-74
2022/04/16 00:30:14;;;;;;;3.45;1.62;;;;;;;3.84;71.65;102177.83;1683708;83;20962;-74
2022/04/16 00:32:58;;;;;;;6.00;1.60;;;;;;;3.82;71.74;102175.22;1684008;84;21406;-74
2022/04/16 00:35:42;;;;;;;3.60;1.62;;;;;;;3.81;71.76;102179.00;1684048;83;20958;-74
2022/04/16 00:38:27;;;;;;;3.27;2.12;;;;;;;3.79;71.63;102180.22;1683524;85;20925;-74
2022/04/16 00:41:12;;;;;;;3.10;1.40;;;;;;;3.76;71.61;102182.66;1656322;85;21451;-75
2022/04/16 00:43:57;;;;;;;2.42;1.22;;;;;;;3.73;71.55;102183.83;1642743;86;20915;-75
2022/04/16 00:46:41;;;;;;;6.05;1.50;;;;;;;3.70;71.54;102182.84;1647945;85;20942;-75
2022/04/16 00:49:25;;;;;;;3.20;1.82;;;;;;;3.65;71.56;102183.55;1637609;85;21399;-74
2022/04/16 00:52:10;;;;;;;3.27;1.95;;;;;;;3.62;71.49;102180.03;1642804;86;20955;-75
2022/04/16 00:54:56;;;;;;;3.17;1.50;;;;;;;3.60;71.56;102176.55;1684211;83;21051;-75
2022/04/16 00:57:42;;;;;;;4.70;1.22;;;;;;;3.57;71.50;102178.98;1684300;84;20918;-74
2022/04/16 01:00:27;;;;;;;5.92;1.62;;;;;;;3.53;71.49;102180.56;1685344;83;20977;-74
2022/04/16 01:03:11;;;;;;;2.45;1.37;;;;;;;3.50;71.49;102189.39;1682998;83;20965;-74
2022/04/16 01:05:56;;;;;;;1.67;1.22;;;;;;;3.47;71.50;102183.29;1657886;85;21475;-74
2022/04/16 01:08:46;;;;;;;2.65;1.60;;;;;;;3.41;71.45;102181.78;1675048;85;21697;-74
2022/04/16 01:11:33;;;;;;;5.33;1.40;;;;;;;3.34;71.46;102187.06;1674873;84;21124;-74
2022/04/16 01:14:21;;;;;;;3.52;1.27;;;;;;;3.29;71.44;102185.60;1673991;85;21069;-73
2022/04/16 01:17:06;;;;;;;2.37;1.30;;;;;;;3.24;71.43;102189.66;1666680;84;20994;-74
2022/04/16 01:19:50;;;;;;;3.70;1.40;;;;;;;3.20;71.42;102194.19;1669326;85;21069;-74
2022/04/16 01:22:35;;;;;;;2.02;1.40;;;;;;;3.16;71.41;102199.13;1672811;84;21637;-74
2022/04/16 01:25:19;;;;;;;3.62;1.32;;;;;;;3.10;71.43;102199.78;1673000;85;21046;-74
2022/04/16 01:28:05;;;;;;;4.35;1.40;;;;;;;3.06;71.41;102208.13;1673700;85;21105;-74
2022/04/16 01:30:49;;;;;;;3.95;1.00;;;;;;;3.04;71.43;102216.55;1676285;84;20994;-74
2022/04/16 01:33:34;;;;;;;3.60;1.20;;;;;;;3.04;71.46;102220.38;1654462;85;21059;-74
2022/04/16 01:36:18;;;;;;;5.50;1.52;;;;;;;3.02;71.44;102221.59;1640973;87;21106;-74
2022/04/16 01:39:03;;;;;;;1.90;1.02;;;;;;;3.00;71.45;102221.94;1674769;84;21109;-74
2022/04/16 01:41:47;;;;;;;3.60;1.15;;;;;;;2.96;71.43;102223.50;1673655;85;21093;-74
2022/04/16 01:44:32;;;;;;;3.27;1.20;;;;;;;2.99;71.44;102222.75;1673757;84;21121;-73
2022/04/16 01:47:17;;;;;;;2.40;0.90;;;;;;;3.00;71.42;102224.50;1674140;85;21085;-74
2022/04/16 01:50:04;;;;;;;3.45;1.10;;;;;;;3.01;71.44;102221.53;1673705;85;21529;-74
2022/04/16 01:52:48;;;;;;;3.47;1.10;;;;;;;3.03;71.44;102225.90;1674931;84;20971;-74
2022/04/16 01:55:33;;;;;;;2.08;0.88;;;;;;;3.03;71.42;102211.84;1676152;85;20941;-74
2022/04/16 01:58:17;;;;;;;1.75;1.02;;;;;;;3.06;71.39;102212.38;1676024;84;21415;-73
2022/04/16 02:01:01;;;;;;;3.12;1.00;;;;;;;3.05;71.37;102210.63;1675981;85;21337;-73
2022/04/16 02:03:46;;;;;;;2.95;1.00;;;;;;;3.06;71.40;102214.92;1676776;83;21864;-73
2022/04/16 02:06:31;;;;;;;2.92;0.90;;;;;;;3.07;71.38;102213.72;1684047;85;20946;-73
2022/04/16 02:09:15;;;;;;;3.33;1.00;;;;;;;3.05;71.35;102217.89;1684033;85;21002;-73
2022/04/16 02:11:59;;;;;;;2.77;1.05;;;;;;;3.03;71.32;102219.91;1683851;83;21525;-73
2022/04/16 02:14:43;;;;;;;2.10;0.75;;;;;;;2.98;71.33;102229.55;1672265;83;21430;-73
2022/04/16 02:17:28;;;;;;;2.70;1.20;;;;;;;2.96;71.35;102219.66;1683993;83;20918;-73
2022/04/16 02:20:12;;;;;;;2.10;0.80;;;;;;;2.94;71.36;102226.80;1677606;83;20969;-73
2022/04/16 02:22:56;;;;;;;3.52;0.85;;;;;;;2.94;71.42;102222.56;1683401;85;20950;-73
2022/04/16 02:25:43;;;;;;;2.22;0.72;;;;;;;2.94;71.42;102226.80;1683917;83;20934;-73
2022/04/16 02:28:27;;;;;;;2.98;0.82;;;;;;;2.93;71.36;102232.72;1675052;85;20934;-73
2022/04/16 02:31:11;;;;;;;4.97;0.80;;;;;;;2.92;71.38;102234.41;1683420;83;21514;-73
2022/04/16 02:33:56;;;;;;;2.37;1.12;;;;;;;2.95;71.44;102243.87;1653079;86;21483;-73
2022/04/16 02:36:40;;;;;;;2.35;0.90;;;;;;;2.95;71.40;102241.32;1656239;85;21367;-74
2022/04/16 02:39:25;;;;;;;4.47;1.22;;;;;;;2.94;71.43;102235.74;1683149;85;20966;-74
2022/04/16 02:42:09;;;;;;;2.27;1.02;;;;;;;2.95;71.43;102243.47;1683593;83;20922;-74
2022/04/16 02:47:58;;;;;;;2.12;0.85;;;;;;;2.99;71.49;102245.75;1651125;86;21061;-73
2022/04/16 02:50:42;;;;;;;3.58;1.00;;;;;;;2.97;71.42;102245.69;1656282;86;21056;-73
2022/04/16 02:53:27;;;;;;;1.52;0.80;;;;;;;2.98;71.43;102258.05;1681113;83;21065;-74
2022/04/16 02:56:11;;;;;;;1.32;0.85;;;;;;;2.96;71.44;102250.33;1674858;84;22150;-74
2022/04/16 02:58:56;;;;;;;4.97;1.27;;;;;;;2.95;71.46;102248.58;1681325;84;21100;-74
2022/04/16 03:01:40;;;;;;;2.80;0.95;;;;;;;2.93;71.46;102253.16;1680835;83;21517;-75
2022/04/16 03:04:26;;;;;;;1.47;0.72;;;;;;;2.92;71.45;102253.97;1683022;82;126977;-74
2022/04/16 03:07:11;;;;;;;2.67;0.90;;;;;;;2.89;71.46;102257.67;1686098;84;21139;-75
2022/04/16 03:09:55;;;;;;;4.90;1.00;;;;;;;2.90;71.49;102261.57;1690082;84;21109;-74
2022/04/16 03:12:48;;;;;;;2.42;0.93;;;;;;;2.88;71.50;102269.98;1698385;84;21077;-74
2022/04/16 03:18:37;;;;;;;4.70;1.30;;;;;;;2.90;71.54;102267.95;1699287;84;20966;-75
2022/04/16 03:21:21;;;;;;;3.37;1.60;;;;;;;2.91;71.48;102266.28;1694873;84;21606;-74
2022/04/16 03:24:06;;;;;;;3.92;1.00;;;;;;;2.90;71.56;102278.58;1695411;83;21047;-75
2022/04/16 03:26:50;;;;;;;2.08;0.82;;;;;;;2.90;71.57;102276.90;1695878;83;21125;-74
2022/04/16 03:29:35;;;;;;;2.45;0.95;;;;;;;2.89;71.51;102274.28;1695864;84;21532;-74
2022/04/16 03:32:19;;;;;;;2.87;0.93;;;;;;;2.86;71.49;102276.70;1695081;83;21579;-74
2022/04/16 03:35:05;;;;;;;2.98;0.98;;;;;;;2.81;71.45;102281.63;1695620;82;21080;-74
2022/04/16 03:37:50;;;;;;;2.10;1.10;;;;;;;2.76;71.49;102284.78;1696773;84;20907;-74
2022/04/16 03:40:34;;;;;;;4.95;1.37;;;;;;;2.70;71.55;102290.91;1674879;84;20952;-75
2022/04/16 03:43:20;;;;;;;3.85;1.60;;;;;;;2.62;71.54;102288.90;1697428;82;20908;-74
2022/04/16 03:46:04;;;;;;;2.53;1.47;;;;;;;2.58;71.58;102298.55;1690743;83;20983;-74
2022/04/16 03:48:49;;;;;;;1.27;0.90;;;;;;;2.55;71.56;102299.69;1695943;83;20924;-75
2022/04/16 03:51:33;;;;;;;1.90;1.32;;;;;;;2.53;71.58;102307.69;1681087;83;20915;-75
2022/04/16 04:00:24;;;;;;;2.95;1.17;;;;;;;2.45;71.59;102309.02;1694011;83;21481;-75
2022/04/16 04:03:09;;;;;;;3.35;1.07;;;;;;;2.44;71.66;102315.34;1693555;83;21166;-74
2022/04/16 04:05:58;;;;;;;2.98;1.00;;;;;;;2.42;71.62;102312.72;1640147;84;21106;-74
2022/04/16 04:08:43;;;;;;;2.90;1.10;;;;;;;2.42;71.70;102313.12;1644634;85;21066;-75
2022/04/16 04:11:28;;;;;;;3.45;1.72;;;;;;;2.42;71.71;102323.33;1650707;86;21043;-75
2022/04/16 04:14:12;;;;;;;2.85;1.60;;;;;;;2.42;71.73;102323.33;1639080;85;21545;-75
2022/04/16 04:16:57;;;;;;;2.83;1.15;;;;;;;2.42;71.74;102330.59;1645958;85;21121;-75
2022/04/16 04:19:44;;;;;;;1.37;0.78;;;;;;;2.42;71.76;102336.97;1650719;85;21058;-75
2022/04/16 04:22:29;;;;;;;4.55;1.40;;;;;;;2.46;71.73;102341.41;1652631;86;21031;-75
2022/04/16 04:25:13;;;;;;;1.57;1.00;;;;;;;2.48;71.75;102347.86;1645058;85;21129;-75
2022/04/16 04:27:58;;;;;;;2.12;0.98;;;;;;;2.50;71.78;102342.02;1636183;85;21088;-75
2022/04/16 04:30:43;;;;;;;1.72;0.80;;;;;;;2.52;71.76;102349.74;1634554;85;21573;-75
2022/04/16 04:33:27;;;;;;;2.72;0.80;;;;;;;2.53;71.79;102352.36;1644852;85;21049;-74
2022/04/16 04:36:12;;;;;;;1.25;0.80;;;;;;;2.56;71.82;102353.78;1652406;86;21042;-78
2022/04/16 04:38:57;;;;;;;3.15;1.00;;;;;;;2.61;71.84;102353.95;1644575;84;21012;-77
2022/04/16 04:41:43;;;;;;;1.80;0.78;;;;;;;2.64;71.80;102354.96;1625264;86;21064;-77
2022/04/16 04:44:27;;;;;;;1.57;0.82;;;;;;;2.68;71.83;102362.76;1639174;84;21774;-77
2022/04/16 04:47:11;;;;;;;2.90;1.20;;;;;;;2.71;71.86;102360.34;1646922;84;21088;-77
2022/04/16 04:49:56;;;;;;;2.37;1.15;;;;;;;2.75;71.87;102372.03;1648478;84;21116;-78
2022/04/16 04:52:41;;;;;;;2.25;1.15;;;;;;;2.79;71.86;102375.20;1632574;84;21496;-78
2022/04/16 04:55:26;;;;;;;4.10;1.27;;;;;;;2.83;71.87;102374.92;1652596;84;21518;-78
2022/04/16 04:58:11;;;;;;;2.30;1.05;;;;;;;2.88;71.94;102377.28;1643535;85;134409;-77
2022/04/16 05:00:56;;;;;;;3.72;0.98;;;;;;;2.95;71.99;102384.00;1675579;84;21075;-77
2022/04/16 05:03:40;;;;;;;3.27;1.98;;;;;;;3.06;71.95;102387.42;1701950;83;21110;-77
2022/04/16 05:06:25;;;;;;;2.33;1.22;;;;;;;3.25;72.06;102384.81;1723316;82;21038;-78
2022/04/16 05:09:11;;;;;;;2.42;1.32;;;;;;;3.56;72.19;102394.23;1729535;81;21038;-77
2022/04/16 05:11:57;;;;;;;1.80;1.30;;;;;;;4.04;72.38;102397.39;1725822;82;26873;-77
2022/04/16 05:14:41;;;;;;;2.80;0.90;;;;;;;4.59;72.44;102398.65;1730266;81;20947;-78
2022/04/16 05:17:27;;;;;;;1.82;0.98;;;;;;;5.22;72.56;102408.12;1704353;82;21455;-78
2022/04/16 05:20:12;;;;;;;3.60;0.90;;;;;;;5.79;72.37;102408.30;1727746;82;21046;-77
2022/04/16 05:22:57;;;;;;;3.35;1.30;;;;;;;6.29;72.31;102409.02;1728383;80;21049;-77
2022/04/16 05:25:41;;;;;;;3.27;1.00;;;;;;;6.83;72.40;102407.58;1728061;82;21027;-79
2022/04/16 05:28:26;;;;;;;1.92;0.95;;;;;;;7.23;72.26;102415.55;1729426;82;21113;-78
2022/04/16 05:31:10;;;;;;;3.37;2.30;;;;;;;7.60;72.40;102410.91;1723171;81;21081;-78
2022/04/16 05:36:58;;;;;;;2.00;1.47;;;;;;;8.26;72.17;102418.89;1709690;81;21105;-79
2022/04/16 05:39:42;;;;;;;1.80;1.30;;;;;;;8.46;71.94;102424.06;1707672;82;22100;-78
2022/04/16 05:42:27;;;;;;;3.65;1.12;;;;;;;8.62;72.24;102423.56;1728872;81;21018;-79
2022/04/16 05:45:14;;;;;;;2.33;1.02;;;;;;;8.77;72.08;102426.87;1724001;82;22112;-79
2022/04/16 05:47:59;;;;;;;3.12;1.20;;;;;;;8.84;72.13;102432.58;1721700;82;21133;-79
2022/04/16 05:50:44;;;;;;;1.52;0.95;;;;;;;8.92;72.05;102440.05;1729406;81;21077;-82
2022/04/16 05:53:31;;;;;;;1.20;0.78;;;;;;;9.01;71.75;102434.63;1699491;82;40345;-78
2022/04/16 05:56:16;;;;;;;1.27;0.93;;;;;;;9.14;71.62;102437.90;1728483;82;21074;-78
2022/04/16 05:59:01;;;;;;;2.63;1.13;;;;;;;9.14;71.62;102438.77;1724844;82;21097;-78
2022/04/16 06:01:46;;;;;;;2.22;1.10;;;;;;;9.18;71.52;102440.98;1707043;81;21089;-78
2022/04/16 06:04:31;;;;;;;2.15;1.17;;;;;;;9.24;71.61;102442.39;1699686;82;21042;-78
2022/04/16 06:07:16;;;;;;;3.08;1.60;;;;;;;9.31;71.44;102443.37;1713641;82;21066;-78
2022/04/16 06:10:00;;;;;;;1.75;1.20;;;;;;;9.29;70.93;102451.09;1721156;82;21090;-78
2022/04/16 06:12:45;;;;;;;3.25;1.37;;;;;;;9.20;70.63;102444.47;1730617;81;21041;-78
2022/04/16 06:15:32;;;;;;;3.27;1.70;;;;;;;9.09;70.44;102444.68;1727436;81;21054;-78
2022/04/16 06:18:16;;;;;;;2.20;1.20;;;;;;;9.19;70.90;102451.77;1701153;83;21460;-78
2022/04/16 06:21:00;;;;;;;3.33;1.75;;;;;;;9.28;70.56;102463.13;1700256;82;21076;-79
2022/04/16 06:23:45;;;;;;;2.25;1.30;;;;;;;9.36;70.48;102458.53;1713809;82;21042;-79
2022/04/16 06:26:30;;;;;;;2.85;1.00;;;;;;;9.47;70.32;102467.31;1729696;82;21067;-80
2022/04/16 06:29:15;;;;;;;3.27;1.10;;;;;;;9.39;70.17;102460.72;1729236;82;21118;-78
2022/04/16 06:31:59;;;;;;;1.65;0.88;;;;;;;9.41;70.22;102465.91;1730018;82;21026;-78
2022/04/16 06:34:44;;;;;;;2.50;1.07;;;;;;;9.48;70.31;102466.05;1729558;81;21050;-79
2022/04/16 06:37:28;;;;;;;2.22;1.00;;;;;;;9.65;70.15;102466.36;1729972;82;21371;-79
2022/04/16 06:40:13;;;;;;;1.35;1.07;;;;;;;9.73;69.99;102460.91;1706336;82;21074;-78
2022/04/16 06:42:58;;;;;;;4.75;2.02;;;;;;;9.79;68.68;102473.05;1730764;81;21487;-78
2022/04/16 06:45:43;;;;;;;2.30;1.30;;;;;;;9.82;69.72;102467.52;1727720;82;21376;-78
2022/04/16 06:48:28;;;;;;;1.57;1.47;;;;;;;9.93;69.46;102460.78;1730532;82;21109;-78
2022/04/16 06:51:13;;;;;;;3.42;1.30;;;;;;;9.99;69.32;102466.89;1719801;81;21073;-78
2022/04/16 06:53:57;;;;;;;2.45;1.20;;;;;;;9.94;68.91;102466.40;1728651;82;21085;-79
2022/04/16 06:56:41;;;;;;;3.05;1.02;;;;;;;10.03;69.32;102468.27;1730268;81;21054;-79
2022/04/16 06:59:26;;;;;;;3.92;2.90;;;;;;;10.23;69.45;102467.31;1730443;81;21116;-78
2022/04/16 07:02:11;;;;;;;6.53;4.70;;;;;;;10.48;69.14;102478.44;1718076;81;21034;-79
2022/04/16 07:04:55;;;;;;;2.00;1.10;;;;;;;10.71;69.22;102478.76;1729042;82;21090;-78
2022/04/16 07:07:40;;;;;;;2.08;1.20;;;;;;;10.76;68.73;102477.53;1729401;82;21058;-78
2022/04/16 07:10:24;;;;;;;1.72;1.10;;;;;;;10.83;68.32;102489.70;1729911;81;21054;-78
2022/04/16 07:13:08;;;;;;;2.40;1.80;;;;;;;10.99;68.77;102485.55;1700366;82;21056;-78
2022/04/16 07:15:53;;;;;;;2.60;1.70;;;;;;;11.08;68.35;102485.66;1702857;82;21530;-79
2022/04/16 07:18:38;;;;;;;1.35;0.93;;;;;;;11.18;68.36;102481.91;1729546;81;21026;-78
2022/04/16 07:21:22;;;;;;;4.92;2.75;;;;;;;11.33;67.90;102492.00;1707175;81;21103;-78
2022/04/16 07:24:07;;;;;;;5.95;3.55;;;;;;;11.34;68.31;102485.97;1728203;81;21054;-79
2022/04/16 07:26:55;;;;;;;1.25;1.00;;;;;;;11.89;68.14;102482.20;1728236;82;21042;-79
2022/04/16 07:29:40;;;;;;;1.82;1.15;;;;;;;12.50;67.77;102484.75;1730427;81;20954;-78
2022/04/16 07:32:28;;;;;;;2.05;1.27;;;;;;;12.84;66.82;102493.59;1728604;82;21086;-78
2022/04/16 07:35:12;;;;;;;2.00;1.47;;;;;;;12.36;65.98;102510.20;1729494;82;21081;-78
2022/04/16 07:37:57;;;;;;;2.75;2.55;;;;;;;11.83;66.18;102502.88;1729500;81;20974;-78
2022/04/16 07:40:42;;;;;;;2.40;2.00;;;;;;;11.35;65.87;102506.70;1725649;82;21058;-78
2022/04/16 07:43:27;;;;;;;33.90;31.52;;;;;;;11.17;66.00;102500.88;1704405;81;411014;-79
2022/04/16 07:46:11;;;;;;;2.45;1.67;;;;;;;11.01;65.27;102505.86;1704489;82;21037;-78
2022/04/16 07:48:57;;;;;;;2.75;2.55;;;;;;;10.99;66.19;102512.30;1724312;82;21050;-78
2022/04/16 07:51:43;;;;;;;1.62;1.52;;;;;;;11.00;65.65;102501.10;1730563;81;21029;-78
2022/04/16 07:54:28;;;;;;;3.33;1.75;;;;;;;11.11;65.87;102507.28;1729995;81;21046;-78
2022/04/16 07:57:13;;;;;;;1.75;1.07;;;;;;;11.37;65.88;102513.20;1729811;81;21054;-79
2022/04/16 07:59:58;;;;;;;2.65;2.00;;;;;;;11.67;65.38;102522.98;1729742;82;21030;-79
2022/04/16 08:02:42;;;;;;;1.95;0.90;;;;;;;11.96;65.27;102524.14;1701179;83;21057;-78
2022/04/16 08:05:27;;;;;;;1.85;1.27;;;;;;;12.05;64.69;102515.57;1728776;82;21085;-79
2022/04/16 08:08:11;;;;;;;4.50;2.00;;;;;;;11.69;64.42;102516.97;1729599;82;21557;-78
2022/04/16 08:10:57;;;;;;;2.80;2.10;;;;;;;11.05;64.27;102523.16;1729307;81;21002;-78
2022/04/16 08:13:42;;;;;;;6.90;4.65;;;;;;;10.56;64.21;102525.98;1730367;82;21636;-78
2022/04/16 08:16:28;;;;;;;4.60;1.62;;;;;;;10.36;64.68;102528.72;1718405;82;21046;-78
2022/04/16 08:19:12;;;;;;;4.70;4.30;;;;;;;10.07;63.98;102529.50;1731463;81;20911;-78
2022/04/16 08:21:57;;;;;;;1.52;1.10;;;;;;;9.77;63.84;102530.28;1728791;82;21363;-78
2022/04/16 08:24:42;;;;;;;1.52;0.85;;;;;;;9.68;63.94;102533.99;1729718;81;21101;-78
2022/04/16 08:27:27;;;;;;;1.75;0.98;;;;;;;10.21;63.91;102537.09;1729457;81;21038;-78
2022/04/16 08:30:13;;;;;;;1.57;0.95;;;;;;;10.92;63.44;102532.48;1729715;81;21305;-78
2022/04/16 08:32:58;;;;;;;1.87;0.88;;;;;;;11.65;62.93;102524.27;1731169;82;21393;-78
2022/04/16 08:35:45;;;;;;;2.15;1.15;;;;;;;11.64;61.56;102536.78;1730522;82;22113;-78
2022/04/16 08:38:30;;;;;;;1.42;1.10;;;;;;;11.54;61.99;102544.01;1731243;81;21026;-78
2022/04/16 08:41:14;;;;;;;1.45;1.20;;;;;;;11.34;61.78;102543.81;1729387;82;21526;-79
2022/04/16 08:43:59;;;;;;;1.50;1.25;;;;;;;10.99;61.58;102539.48;1729509;81;21049;-78
2022/04/16 08:46:44;;;;;;;2.45;1.90;;;;;;;10.59;61.63;102537.66;1723912;81;20982;-78
2022/04/16 08:49:29;;;;;;;2.55;1.80;;;;;;;10.27;61.90;102538.48;1729323;81;21050;-78
2022/04/16 08:52:15;;;;;;;3.52;2.30;;;;;;;10.12;61.82;102539.92;1729814;81;21483;-78
2022/04/16 08:55:01;;;;;;;2.17;1.00;;;;;;;10.00;61.98;102531.53;1719201;82;21034;-78
2022/04/16 08:57:46;;;;;;;2.67;1.75;;;;;;;9.93;61.64;102537.44;1724707;81;21045;-79
2022/04/16 09:00:31;;;;;;;2.00;1.30;;;;;;;9.80;61.58;102535.52;1729570;81;21097;-79
2022/04/16 09:03:15;;;;;;;2.15;1.10;;;;;;;9.57;60.98;102537.66;1728293;82;21057;-78
2022/04/16 09:06:00;;;;;;;3.20;2.10;;;;;;;9.28;60.48;102532.83;1729474;81;21128;-78
2022/04/16 09:08:45;;;;;;;2.50;1.77;;;;;;;9.06;60.29;102546.13;1720460;82;21589;-78
2022/04/16 09:11:29;;;;;;;3.12;2.25;;;;;;;8.86;60.74;102540.95;1729814;81;21475;-78
2022/04/16 09:14:14;;;;;;;2.65;1.80;;;;;;;8.76;60.92;102547.66;1720739;82;21078;-78
2022/04/16 09:16:59;;;;;;;4.10;2.00;;;;;;;8.70;60.47;102549.22;1709960;81;21471;-78
2022/04/16 09:19:54;;;;;;;4.25;2.42;;;;;;;8.60;60.51;102558.45;1719927;82;21017;-78
2022/04/16 09:22:42;;;;;;;2.75;1.65;;;;;;;8.52;60.26;102556.11;1729532;82;21526;-78
2022/04/16 09:25:30;;;;;;;1.27;0.75;;;;;;;8.43;59.80;102549.03;1731784;81;20970;-78
2022/04/16 09:28:18;;;;;;;1.87;1.40;;;;;;;8.44;60.04;102552.06;1730186;81;21002;-78
2022/04/16 09:31:04;;;;;;;2.60;1.85;;;;;;;8.50;59.08;102549.63;1729115;82;21079;-78
2022/04/16 09:33:49;;;;;;;1.75;1.02;;;;;;;8.50;59.38;102551.33;1729733;82;21045;-78
2022/04/16 09:36:39;;;;;;;1.20;0.80;;;;;;;8.60;59.62;102550.72;1728938;82;22846;-78
2022/04/16 09:39:25;;;;;;;2.70;1.22;;;;;;;8.63;59.11;102546.50;1711527;82;22135;-78
2022/04/16 09:42:09;;;;;;;0.80;0.50;;;;;;;8.61;59.29;102551.17;1706490;82;21100;-77
2022/04/16 09:44:54;;;;;;;2.67;1.20;;;;;;;8.71;59.31;102563.86;1729179;82;21525;-78
2022/04/16 09:47:40;;;;;;;1.30;0.78;;;;;;;8.71;59.13;102560.86;1720358;82;21095;-78
2022/04/16 09:50:27;;;;;;;1.62;1.22;;;;;;;8.78;58.93;102562.74;1726455;82;21034;-78
2022/04/16 09:53:12;;;;;;;1.70;1.35;;;;;;;8.86;58.88;102561.59;1729585;82;21134;-79
2022/04/16 09:55:59;;;;;;;1.27;1.15;;;;;;;8.98;59.09;102553.25;1729209;81;21039;-78
2022/04/16 09:58:49;;;;;;;1.85;1.15;;;;;;;9.06;58.76;102555.16;1719557;82;21089;-79
2022/04/16 10:01:35;;;;;;;2.08;1.25;;;;;;;9.14;59.15;102557.91;1730503;82;20970;-78
2022/04/16 10:04:20;;;;;;;1.70;0.80;;;;;;;9.29;58.67;102555.64;1731093;82;21074;-78
2022/04/16 10:07:06;;;;;;;3.03;2.60;;;;;;;9.35;58.59;102551.90;1724300;82;21025;-78
2022/04/16 10:09:55;;;;;;;2.77;1.27;;;;;;;9.37;58.65;102554.06;1730315;81;21384;-78
2022/04/16 10:16:10;;;;;;;3.70;2.42;;;;;;;9.60;58.67;102554.52;1717895;82;21494;-79
2022/04/16 10:18:55;;;;;;;2.17;1.47;;;;;;;9.68;58.41;102560.70;1699964;82;21570;-79
2022/04/16 10:21:42;;;;;;;2.35;1.50;;;;;;;9.71;58.03;102561.17;1699819;82;21617;-79
2022/04/16 10:24:28;;;;;;;2.87;1.70;;;;;;;9.61;58.20;102566.16;1721218;82;21034;-79
2022/04/16 10:27:17;;;;;;;3.42;1.27;;;;;;;9.57;58.04;102568.66;1700090;83;21093;-79
2022/04/16 10:30:09;;;;;;;1.37;1.27;;;;;;;9.53;58.12;102562.56;1721038;82;21329;-79
2022/04/16 10:32:53;;;;;;;1.77;1.27;;;;;;;9.55;58.03;102567.75;1731101;81;20942;-79
2022/04/16 10:35:42;;;;;;;2.35;1.30;;;;;;;9.63;57.82;102572.23;1731044;82;20887;-79
2022/04/16 10:38:41;;;;;;;1.95;1.27;;;;;;;9.68;58.08;102554.66;1728673;82;21478;-80
2022/04/16 10:41:28;;;;;;;2.33;1.20;;;;;;;9.86;58.05;102567.50;1699923;82;21042;-79
2022/04/16 10:44:12;;;;;;;1.37;1.00;;;;;;;9.96;57.79;102559.45;1702234;83;25222;-79
2022/04/16 10:47:00;;;;;;;3.33;1.05;;;;;;;9.93;57.42;102553.81;1721819;82;20903;-79
2022/04/16 10:49:45;;;;;;;2.02;1.30;;;;;;;9.94;57.52;102558.56;1702388;82;20919;-78
2022/04/16 10:52:29;;;;;;;1.40;0.88;;;;;;;9.97;57.43;102556.03;1700980;83;21014;-78
2022/04/16 10:55:14;;;;;;;3.12;1.32;;;;;;;10.05;57.55;102558.75;1704856;82;21463;-78
2022/04/16 10:58:06;;;;;;;4.12;1.20;;;;;;;10.10;57.14;102550.23;1725116;82;21031;-78
2022/04/16 11:00:50;;;;;;;3.00;1.37;;;;;;;10.18;57.19;102552.95;1729933;82;21419;-79
2022/04/16 11:03:45;;;;;;;2.45;1.00;;;;;;;10.23;57.28;102554.80;1723951;81;130076;-79
2022/04/16 11:06:37;;;;;;;2.05;1.10;;;;;;;10.23;57.05;102552.21;1716320;82;21050;-78
2022/04/16 11:09:21;;;;;;;1.45;1.07;;;;;;;10.11;56.73;102562.31;1733761;82;21512;-79
2022/04/16 11:12:08;;;;;;;2.20;1.45;;;;;;;10.01;56.87;102553.95;1732623;82;21539;-78
2022/04/16 11:14:54;;;;;;;1.25;0.93;;;;;;;9.99;56.93;102547.02;1734085;81;21138;-78
2022/04/16 11:17:38;;;;;;;2.22;1.00;;;;;;;10.07;56.95;102550.17;1718121;80;20958;-78
2022/04/16 11:20:26;;;;;;;1.35;0.95;;;;;;;10.15;56.73;102551.18;1729388;82;21663;-78
2022/04/16 11:23:11;;;;;;;1.55;1.00;;;;;;;10.25;56.76;102559.57;1731475;82;21056;-78
2022/04/16 11:35:08;;;;;;;1.80;1.10;;;;;;;10.50;56.41;102536.66;1728769;81;21054;-78
2022/04/16 11:37:56;;;;;;;0.90;0.75;;;;;;;10.48;55.94;102548.69;1703682;83;21108;-78
2022/04/16 11:40:41;;;;;;;1.60;1.00;;;;;;;10.43;55.68;102555.52;1704937;82;21045;-79
2022/04/16 11:43:30;;;;;;;1.42;1.30;;;;;;;10.37;55.94;102549.85;1726172;82;21561;-80
2022/04/16 11:46:15;;;;;;;2.35;1.95;;;;;;;10.46;55.99;102542.20;1724824;82;21062;-78
2022/04/16 11:49:00;;;;;;;1.10;1.00;;;;;;;10.57;56.09;102548.41;1726589;82;21093;-78
2022/04/16 11:51:45;;;;;;;1.37;0.95;;;;;;;10.62;55.39;102552.36;1729501;82;20985;-79
2022/04/16 11:54:31;;;;;;;3.65;2.47;;;;;;;10.54;55.74;102550.08;1734370;82;20934;-78
2022/04/16 11:57:24;;;;;;;1.60;1.05;;;;;;;10.53;55.51;102550.50;1733047;82;21045;-77
2022/04/16 12:00:11;;;;;;;2.67;0.95;;;;;;;10.57;55.32;102547.12;1734145;82;21510;-79
2022/04/16 12:02:56;;;;;;;1.90;1.40;;;;;;;10.63;55.44;102541.17;1732950;82;21074;-79
2022/04/16 12:05:47;;;;;;;1.40;0.90;;;;;;;10.57;54.98;102544.53;1730871;82;21053;-78
2022/04/16 12:08:31;;;;;;;1.87;0.82;;;;;;;10.47;55.10;102538.77;1731991;81;21586;-79
2022/04/16 12:11:19;;;;;;;1.95;0.82;;;;;;;10.46;55.00;102536.16;1733864;81;21085;-79
2022/04/16 12:14:04;;;;;;;3.92;1.10;;;;;;;10.53;55.00;102534.98;1735822;81;20939;-79
2022/04/16 12:17:00;;;;;;;1.00;0.85;;;;;;;10.64;55.00;102537.73;1735675;81;21384;-79
2022/04/16 12:19:45;;;;;;;1.07;0.80;;;;;;;10.73;54.99;102522.77;1734386;82;21443;-79
2022/04/16 12:22:29;;;;;;;1.80;0.75;;;;;;;10.81;54.65;102549.63;1734377;82;21120;-79
2022/04/16 12:25:19;;;;;;;0.95;0.60;;;;;;;10.75;54.63;102528.83;1733848;81;20978;-79
2022/04/16 12:28:11;;;;;;;2.98;1.07;;;;;;;10.85;54.70;102532.86;1736147;81;20911;-79
2022/04/16 12:30:55;;;;;;;2.40;1.00;;;;;;;11.00;54.49;102532.59;1684751;82;21113;-79
2022/04/16 12:33:39;;;;;;;4.47;0.72;;;;;;;11.07;54.12;102534.41;1733986;82;21085;-78
2022/04/16 12:36:24;;;;;;;1.57;0.75;;;;;;;11.10;54.26;102535.31;1734493;82;21097;-80
2022/04/16 12:39:08;;;;;;;2.05;0.85;;;;;;;11.07;54.15;102531.82;1734547;81;21034;-79
2022/04/16 12:41:53;;;;;;;1.12;0.90;;;;;;;11.10;54.25;102527.55;1734643;82;21042;-78
2022/04/16 12:44:37;;;;;;;1.50;0.75;;;;;;;11.16;54.33;102521.16;1708582;82;21050;-78
2022/04/16 12:47:22;;;;;;;2.00;1.02;;;;;;;11.19;54.13;102513.84;1728515;82;21046;-79
2022/04/16 12:50:09;;;;;;;4.87;2.60;;;;;;;11.20;54.09;102520.34;1734255;82;21050;-79
2022/04/16 12:52:53;;;;;;;3.42;1.98;;;;;;;11.27;53.72;102509.62;1727225;82;20994;-78
2022/04/16 12:55:37;;;;;;;3.95;2.20;;;;;;;11.31;53.90;102503.63;1731967;81;21018;-78
2022/04/16 12:58:22;;;;;;;2.45;1.37;;;;;;;11.40;53.79;102506.75;1732143;82;21489;-78
2022/04/16 13:01:07;;;;;;;6.28;3.72;;;;;;;11.45;53.76;102499.87;1733501;81;21037;-78
2022/04/16 13:03:51;;;;;;;6.05;2.92;;;;;;;11.48;53.36;102507.25;1699960;83;21585;-78
2022/04/16 13:06:36;;;;;;;4.37;3.33;;;;;;;11.48;53.42;102496.88;1674562;84;21046;-78
2022/04/16 13:09:20;;;;;;;2.10;1.10;;;;;;;11.50;53.04;102509.86;1716084;82;21533;-79
2022/04/16 13:12:06;;;;;;;5.80;3.08;;;;;;;11.47;53.02;102501.63;1721590;82;21104;-79
2022/04/16 13:14:50;;;;;;;4.58;3.58;;;;;;;11.47;53.06;102494.28;1734375;81;21463;-79
2022/04/16 13:17:36;;;;;;;1.52;1.05;;;;;;;11.49;53.01;102492.57;1724732;82;21078;-80
2022/04/16 13:20:21;;;;;;;1.95;1.25;;;;;;;11.44;52.85;102486.48;1735054;82;20994;-78
2022/04/16 13:23:05;;;;;;;1.90;0.60;;;;;;;11.42;52.74;102483.03;1704721;84;21042;-78
2022/04/16 13:25:51;;;;;;;2.17;0.80;;;;;;;11.46;52.75;102486.94;1702637;84;21521;-79